Time;durP1;ratioP1;P1;durP2;ratioP2;P2;SDS_P1;SDS_P2;PMS_P1;PMS_P2;Temp;Humidity;BMP_temperature;BMP_pressure;BME280_temperature;BME280_humidity;BME280_pressure;Samples;Min_cycle;Max_cycle;Signal;HPM_P1;HPM_P2
2021/07/10 00:00:59;;;;;;;18.63;11.68;;;;;;;17.38;78.33;101941.84;5075138;28;20055;-54
2021/07/10 00:03:25;;;;;;;19.63;11.70;;;;;;;17.35;78.44;101927.91;5075341;28;20049;-51
2021/07/10 00:05:52;;;;;;;20.23;11.98;;;;;;;17.33;78.65;101933.34;5074975;28;20477;-54
2021/07/10 00:08:19;;;;;;;18.38;10.85;;;;;;;17.36;78.32;101927.78;5073617;28;20057;-54
2021/07/10 00:10:46;;;;;;;19.85;11.07;;;;;;;17.36;78.65;101930.44;5070839;28;20056;-55
2021/07/10 00:13:13;;;;;;;16.52;11.05;;;;;;;17.28;78.74;101932.84;5071856;28;20060;-54
2021/07/10 00:15:40;;;;;;;18.23;11.90;;;;;;;17.26;78.84;101929.47;5070581;28;20052;-53
2021/07/10 00:18:07;;;;;;;18.73;11.38;;;;;;;17.20;79.24;101936.09;5072306;28;20052;-54
2021/07/10 00:20:33;;;;;;;18.98;11.27;;;;;;;17.19;79.31;101921.13;5074020;28;20398;-54
2021/07/10 00:23:01;;;;;;;16.90;11.60;;;;;;;17.13;80.10;101912.78;5072395;28;20500;-53
2021/07/10 00:25:29;;;;;;;18.85;11.52;;;;;;;17.11;80.09;101912.88;5070940;28;20430;-54
2021/07/10 00:27:55;;;;;;;17.95;11.30;;;;;;;17.11;79.64;101917.34;5070469;28;20048;-54
2021/07/10 00:30:24;;;;;;;23.35;12.75;;;;;;;17.08;79.99;101902.47;5069020;28;20489;-54
2021/07/10 00:32:51;;;;;;;22.08;13.60;;;;;;;17.06;80.66;101909.72;5073704;28;20060;-53
2021/07/10 00:35:19;;;;;;;21.80;13.25;;;;;;;17.09;80.30;101900.69;5072064;28;20052;-54
2021/07/10 00:37:46;;;;;;;21.45;13.02;;;;;;;17.01;80.39;101904.75;5071926;28;20415;-53
2021/07/10 00:40:14;;;;;;;20.10;12.15;;;;;;;16.97;80.18;101897.97;5070068;28;20056;-52
2021/07/10 00:42:41;;;;;;;17.73;11.15;;;;;;;16.96;80.13;101890.13;5070521;28;20106;-54
2021/07/10 00:45:10;;;;;;;19.27;12.32;;;;;;;17.00;80.33;101881.81;5068519;28;20045;-53
2021/07/10 00:47:38;;;;;;;23.88;13.35;;;;;;;16.95;80.75;101881.31;5074371;28;20048;-53
2021/07/10 00:50:13;;;;;;;22.30;14.07;;;;;;;16.80;81.37;101880.63;5073001;28;20044;-53
2021/07/10 00:52:41;;;;;;;21.02;13.45;;;;;;;16.87;81.33;101875.69;5073348;28;20143;-53
2021/07/10 00:55:08;;;;;;;23.58;14.45;;;;;;;16.79;81.37;101883.41;5070708;28;20053;-52
2021/07/10 00:57:37;;;;;;;23.88;14.98;;;;;;;16.86;80.86;101880.16;5072939;28;20044;-53
2021/07/10 01:00:06;;;;;;;24.52;15.27;;;;;;;16.80;81.00;101880.63;5072700;28;20492;-53
2021/07/10 01:02:33;;;;;;;24.10;13.75;;;;;;;16.82;80.93;101886.66;5070095;28;21109;-54
2021/07/10 01:05:04;;;;;;;25.83;14.45;;;;;;;16.77;81.20;101880.88;5053846;28;20122;-53
2021/07/10 01:07:31;;;;;;;23.42;13.77;;;;;;;16.77;81.66;101880.00;5072556;28;20056;-53
2021/07/10 01:09:57;;;;;;;22.80;14.50;;;;;;;16.80;80.89;101874.47;5070521;28;20036;-52
2021/07/10 01:12:24;;;;;;;22.13;13.57;;;;;;;16.79;81.42;101878.09;5069845;28;20051;-53
2021/07/10 01:14:51;;;;;;;23.80;14.82;;;;;;;16.76;81.94;101876.50;5069311;28;20504;-51
2021/07/10 01:17:18;;;;;;;22.10;13.73;;;;;;;16.70;81.88;101869.84;5070878;28;20044;-50
2021/07/10 01:20:05;;;;;;;21.15;13.82;;;;;;;16.63;82.33;101870.41;5070789;28;20056;-52
2021/07/10 01:22:34;;;;;;;23.92;13.75;;;;;;;16.56;83.11;101872.69;5071094;28;20052;-52
2021/07/10 01:25:02;;;;;;;25.73;15.15;;;;;;;16.58;82.93;101870.78;5072885;28;20497;-53
2021/07/10 01:27:29;;;;;;;23.40;14.93;;;;;;;16.65;82.33;101877.31;5071810;28;20106;-53
2021/07/10 01:29:56;;;;;;;22.13;13.75;;;;;;;16.70;82.61;101874.31;5072309;28;20516;-52
2021/07/10 01:32:23;;;;;;;21.33;13.77;;;;;;;16.70;82.60;101874.31;5069550;28;20050;-51
2021/07/10 01:34:50;;;;;;;22.88;13.38;;;;;;;16.72;82.90;101869.72;5070721;28;20281;-53
2021/07/10 01:37:17;;;;;;;21.17;13.25;;;;;;;16.67;82.93;101866.56;5073325;28;20050;-53
2021/07/10 01:39:44;;;;;;;19.65;13.35;;;;;;;16.64;83.16;101862.34;5073003;28;20040;-52
2021/07/10 01:42:11;;;;;;;24.02;14.20;;;;;;;16.59;83.24;101861.00;5070453;28;20040;-51
2021/07/10 01:44:40;;;;;;;25.90;14.32;;;;;;;16.59;83.12;101867.13;5068983;28;20136;-55
2021/07/10 01:47:09;;;;;;;21.17;13.68;;;;;;;16.69;83.52;101862.84;5069574;28;20057;-54
2021/07/10 01:49:36;;;;;;;19.67;12.63;;;;;;;16.71;83.14;101857.41;5071926;28;20051;-52
2021/07/10 01:52:03;;;;;;;19.88;12.73;;;;;;;16.76;82.67;101857.09;5072622;28;20058;-53
2021/07/10 01:54:30;;;;;;;23.00;13.05;;;;;;;16.75;83.03;101855.38;5071435;28;20045;-55
2021/07/10 01:56:57;;;;;;;22.70;13.35;;;;;;;16.69;82.99;101851.38;5072708;28;20059;-54
2021/07/10 01:59:24;;;;;;;22.48;13.57;;;;;;;16.73;82.86;101844.88;5072233;28;20049;-55
2021/07/10 02:01:52;;;;;;;21.08;13.48;;;;;;;16.78;83.11;101839.19;5072326;28;20496;-55
2021/07/10 02:04:21;;;;;;;23.48;15.18;;;;;;;16.63;83.25;101852.66;5072141;28;20048;-53
2021/07/10 02:06:48;;;;;;;22.10;13.40;;;;;;;16.72;82.95;101844.00;5072503;28;20056;-56
2021/07/10 02:09:15;;;;;;;21.90;14.80;;;;;;;16.77;82.71;101849.00;5069433;28;20097;-55
2021/07/10 02:11:47;;;;;;;21.25;13.57;;;;;;;16.78;82.91;101855.13;5069773;28;20055;-54
2021/07/10 02:14:15;;;;;;;24.83;15.32;;;;;;;16.79;82.79;101849.72;5068216;28;20048;-53
2021/07/10 02:16:43;;;;;;;22.00;14.15;;;;;;;16.69;83.26;101852.22;5071200;28;20055;-56
2021/07/10 02:19:09;;;;;;;22.85;14.60;;;;;;;16.73;83.47;101844.88;5072713;28;20076;-55
2021/07/10 02:21:37;;;;;;;21.42;13.05;;;;;;;16.75;82.93;101840.28;5069882;28;20040;-56
2021/07/10 02:24:07;;;;;;;22.48;14.68;;;;;;;16.73;83.47;101839.56;5069168;28;20048;-54
2021/07/10 02:26:35;;;;;;;24.95;15.32;;;;;;;16.65;83.86;101839.28;5068636;28;20040;-54
2021/07/10 02:29:05;;;;;;;24.88;14.73;;;;;;;16.65;83.81;101829.50;5069440;28;20060;-56
2021/07/10 02:31:33;;;;;;;22.35;15.05;;;;;;;16.68;83.78;101837.25;5068275;28;20098;-54
2021/07/10 02:34:01;;;;;;;26.50;16.42;;;;;;;16.73;83.80;101831.59;5069206;28;20036;-54
2021/07/10 02:36:27;;;;;;;28.02;17.02;;;;;;;16.73;83.84;101828.94;5069434;28;20138;-54
2021/07/10 02:38:54;;;;;;;26.55;16.35;;;;;;;16.68;83.89;101834.59;5067403;28;20045;-55
2021/07/10 02:41:21;;;;;;;25.33;15.63;;;;;;;16.64;84.05;101833.13;5069181;28;20104;-53
2021/07/10 02:43:48;;;;;;;27.63;15.80;;;;;;;16.66;83.89;101820.59;5069447;28;20052;-54
2021/07/10 02:46:17;;;;;;;28.83;17.02;;;;;;;16.61;84.46;101814.78;5066072;28;20114;-54
2021/07/10 02:48:45;;;;;;;26.42;16.58;;;;;;;16.45;85.34;101811.59;5052319;28;20067;-53
2021/07/10 02:51:12;;;;;;;26.23;16.20;;;;;;;16.51;84.44;101816.41;5072214;28;20376;-53
2021/07/10 02:53:38;;;;;;;30.10;16.88;;;;;;;16.50;84.29;101809.44;5072337;28;20127;-52
2021/07/10 02:56:05;;;;;;;25.77;16.52;;;;;;;16.60;83.52;101810.41;5070370;28;20066;-53
2021/07/10 02:58:32;;;;;;;29.33;16.08;;;;;;;16.56;83.78;101809.81;5069599;28;20048;-52
2021/07/10 03:00:59;;;;;;;30.55;17.77;;;;;;;16.58;83.93;101807.03;5067311;28;20051;-52
2021/07/10 03:03:26;;;;;;;30.35;17.05;;;;;;;16.57;83.77;101808.00;5069039;28;20036;-52
2021/07/10 03:05:53;;;;;;;31.25;17.60;;;;;;;16.55;83.98;101801.94;5072026;28;20041;-53
2021/07/10 03:08:21;;;;;;;27.40;16.48;;;;;;;16.43;84.36;101801.06;5070900;28;20106;-53
2021/07/10 03:10:48;;;;;;;25.92;16.77;;;;;;;16.35;84.89;101790.19;5068542;28;20405;-51
2021/07/10 03:13:15;;;;;;;25.85;16.60;;;;;;;16.35;85.07;101798.16;5068071;28;20049;-50
2021/07/10 03:15:43;;;;;;;29.52;17.83;;;;;;;16.28;85.50;101799.53;5067849;28;20063;-53
2021/07/10 03:18:09;;;;;;;27.27;16.73;;;;;;;16.22;85.51;101792.91;5067869;28;20660;-51
2021/07/10 03:20:37;;;;;;;26.55;15.75;;;;;;;16.15;85.43;101794.31;5068999;28;20032;-53
2021/07/10 03:23:04;;;;;;;26.30;16.40;;;;;;;16.18;85.12;101786.13;5072070;28;20049;-53
2021/07/10 03:25:31;;;;;;;26.55;17.20;;;;;;;16.26;84.43;101791.72;5071821;28;20466;-51
2021/07/10 03:27:58;;;;;;;27.02;17.83;;;;;;;16.25;84.79;101795.31;5070623;28;20672;-50
2021/07/10 03:30:26;;;;;;;25.90;16.13;;;;;;;16.19;84.01;101790.47;5071839;28;20051;-52
2021/07/10 03:32:53;;;;;;;27.60;17.38;;;;;;;16.16;84.13;101796.03;5071700;28;20051;-52
2021/07/10 03:35:21;;;;;;;27.40;17.13;;;;;;;16.13;84.30;101794.44;5069494;28;20051;-52
2021/07/10 03:37:48;;;;;;;25.75;16.75;;;;;;;16.20;83.61;101792.19;5068765;28;20045;-53
2021/07/10 03:40:18;;;;;;;27.63;16.40;;;;;;;16.21;83.80;101791.19;5070456;28;20497;-52
2021/07/10 03:42:46;;;;;;;24.00;15.70;;;;;;;16.19;83.98;101795.78;5069984;28;20531;-54
2021/07/10 03:45:14;;;;;;;25.48;16.33;;;;;;;16.11;83.93;101792.84;5070675;28;20570;-54
2021/07/10 03:47:47;;;;;;;25.77;15.65;;;;;;;16.21;83.47;101796.50;5067035;28;20052;-51
2021/07/10 03:50:14;;;;;;;25.08;15.45;;;;;;;16.14;83.80;101788.19;5071045;28;20044;-51
2021/07/10 03:52:41;;;;;;;27.65;15.20;;;;;;;16.12;83.99;101789.25;5071792;28;20102;-50
2021/07/10 03:55:11;;;;;;;21.98;14.60;;;;;;;16.07;83.98;101778.94;5070346;28;20045;-54
2021/07/10 03:57:39;;;;;;;21.88;13.77;;;;;;;16.02;83.94;101783.75;5072392;28;20136;-52
2021/07/10 04:00:18;;;;;;;23.45;14.60;;;;;;;16.07;83.76;101783.44;5071318;28;20405;-52
2021/07/10 04:02:45;;;;;;;25.83;15.05;;;;;;;16.07;83.74;101776.28;5074001;28;20543;-52
2021/07/10 04:05:12;;;;;;;23.63;14.05;;;;;;;16.07;83.59;101775.47;5071993;28;20073;-51
2021/07/10 04:07:40;;;;;;;25.08;15.38;;;;;;;16.10;83.70;101775.22;5072263;28;20779;-53
2021/07/10 04:10:08;;;;;;;22.38;14.48;;;;;;;16.06;84.37;101769.31;5071617;28;20053;-53
2021/07/10 04:12:35;;;;;;;24.63;15.07;;;;;;;16.09;83.89;101777.03;5071761;28;20051;-52
2021/07/10 04:15:03;;;;;;;25.00;15.57;;;;;;;16.14;85.18;101772.25;5075018;28;21006;-53
2021/07/10 04:17:31;;;;;;;25.60;15.77;;;;;;;16.04;85.78;101766.75;5074817;28;20048;-51
2021/07/10 04:19:59;;;;;;;25.75;16.17;;;;;;;16.07;85.68;101773.66;5073173;28;20037;-52
2021/07/10 04:22:26;;;;;;;26.30;16.30;;;;;;;16.04;85.38;101769.41;5070561;28;20343;-53
2021/07/10 04:24:53;;;;;;;29.23;18.17;;;;;;;16.10;85.67;101769.91;5073709;28;20094;-52
2021/07/10 04:27:19;;;;;;;25.77;15.88;;;;;;;16.01;85.76;101768.81;5074630;28;20045;-51
2021/07/10 04:29:48;;;;;;;25.42;16.35;;;;;;;15.96;86.42;101771.78;5073433;28;20063;-51
2021/07/10 04:32:16;;;;;;;21.60;14.98;;;;;;;16.00;86.02;101770.59;5074548;28;20094;-52
2021/07/10 04:34:44;;;;;;;26.42;16.67;;;;;;;16.07;86.28;101767.50;5074734;28;20048;-53
2021/07/10 04:37:11;;;;;;;28.30;17.13;;;;;;;16.09;86.05;101761.13;5074292;28;20421;-52
2021/07/10 04:39:37;;;;;;;25.92;16.52;;;;;;;16.08;85.97;101754.13;5071753;28;20041;-52
2021/07/10 04:42:05;;;;;;;26.58;16.45;;;;;;;16.10;86.15;101757.53;5070998;28;20064;-53
2021/07/10 04:44:32;;;;;;;24.02;15.85;;;;;;;16.17;85.75;101752.56;5074458;28;20064;-52
2021/07/10 04:46:59;;;;;;;23.60;15.70;;;;;;;16.19;85.68;101761.28;5074313;28;20048;-53
2021/07/10 04:49:26;;;;;;;27.40;16.48;;;;;;;16.22;86.35;101766.34;5072929;28;20120;-53
2021/07/10 04:51:52;;;;;;;27.88;15.80;;;;;;;16.30;85.96;101771.94;5074134;28;20044;-52
2021/07/10 04:54:19;;;;;;;32.85;17.80;;;;;;;16.39;86.29;101765.94;5074194;28;20041;-51
2021/07/10 04:56:46;;;;;;;28.70;17.23;;;;;;;16.44;85.33;101770.88;5074064;28;20040;-50
2021/07/10 04:59:13;;;;;;;25.90;17.02;;;;;;;16.43;85.64;101768.34;5073129;28;20110;-54
2021/07/10 05:01:40;;;;;;;29.52;17.00;;;;;;;16.45;86.26;101761.97;5070597;28;20044;-52
2021/07/10 05:04:06;;;;;;;30.13;18.48;;;;;;;16.46;85.86;101762.84;5070309;28;20106;-54
2021/07/10 05:06:33;;;;;;;32.28;21.08;;;;;;;16.50;85.83;101759.81;5070932;28;20082;-56
2021/07/10 05:09:00;;;;;;;33.38;21.35;;;;;;;16.51;86.15;101764.19;5070449;28;20059;-53
2021/07/10 05:11:27;;;;;;;33.65;20.20;;;;;;;16.54;86.08;101763.09;5070899;28;20066;-53
2021/07/10 05:13:58;;;;;;;31.20;19.65;;;;;;;16.66;86.47;101761.28;5070444;28;20443;-53
2021/07/10 05:16:25;;;;;;;33.30;21.00;;;;;;;16.68;86.36;101757.56;5071441;28;20068;-56
2021/07/10 05:18:52;;;;;;;32.35;21.50;;;;;;;16.69;86.55;101755.78;5070877;28;20072;-56
2021/07/10 05:21:23;;;;;;;35.95;22.55;;;;;;;16.73;86.57;101755.41;5071157;28;20036;-52
2021/07/10 05:23:50;;;;;;;35.28;21.20;;;;;;;16.76;86.53;101759.66;5073552;28;20451;-53
2021/07/10 05:26:17;;;;;;;35.45;21.80;;;;;;;16.85;86.04;101761.59;5073523;28;20068;-55
2021/07/10 05:28:44;;;;;;;34.40;20.90;;;;;;;16.92;85.92;101751.38;5073546;28;20056;-56
2021/07/10 05:31:11;;;;;;;33.28;20.95;;;;;;;17.02;85.57;101752.31;5068891;28;20086;-56
2021/07/10 05:33:38;;;;;;;35.30;21.40;;;;;;;17.10;85.86;101751.75;5070763;28;20060;-55
2021/07/10 05:36:05;;;;;;;36.53;22.38;;;;;;;17.15;85.30;101754.88;5068915;28;20059;-56
2021/07/10 05:38:31;;;;;;;35.60;22.02;;;;;;;17.27;85.13;101760.19;5069552;28;20576;-56
2021/07/10 05:40:58;;;;;;;38.80;22.55;;;;;;;17.31;84.90;101756.31;5070216;28;20072;-56
2021/07/10 05:43:25;;;;;;;38.13;24.10;;;;;;;17.38;83.84;101755.72;5069946;28;20513;-54
2021/07/10 05:45:53;;;;;;;34.70;22.85;;;;;;;17.49;84.00;101761.97;5068493;28;20142;-57
2021/07/10 05:48:21;;;;;;;37.90;21.27;;;;;;;17.56;84.40;101756.06;5073135;28;20052;-56
2021/07/10 05:50:48;;;;;;;34.80;21.92;;;;;;;17.65;83.23;101751.78;5055332;28;20060;-57
2021/07/10 05:53:16;;;;;;;37.53;22.33;;;;;;;17.76;83.77;101742.09;5073051;28;20036;-56
2021/07/10 05:55:42;;;;;;;33.33;21.60;;;;;;;17.86;82.76;101743.03;5071886;28;20042;-56
2021/07/10 05:58:11;;;;;;;30.15;19.70;;;;;;;17.97;82.30;101742.19;5072931;28;20075;-57
2021/07/10 06:00:38;;;;;;;32.60;20.15;;;;;;;18.06;81.42;101736.97;5072597;28;20044;-57
2021/07/10 06:03:05;;;;;;;30.85;19.65;;;;;;;18.19;80.78;101747.41;5069647;28;20489;-56
2021/07/10 06:05:32;;;;;;;31.58;20.35;;;;;;;18.29;80.33;101739.50;5069620;28;20520;-56
2021/07/10 06:07:59;;;;;;;33.78;20.17;;;;;;;18.34;79.54;101741.78;5069170;28;20040;-55
2021/07/10 06:10:26;;;;;;;30.58;20.33;;;;;;;18.48;79.49;101751.28;5070225;28;20053;-56
2021/07/10 06:12:53;;;;;;;31.25;19.92;;;;;;;18.63;78.91;101755.28;5072257;28;20509;-56
2021/07/10 06:15:20;;;;;;;30.17;20.42;;;;;;;18.76;79.37;101747.09;5068132;28;20386;-57
2021/07/10 06:17:47;;;;;;;32.78;21.17;;;;;;;18.87;78.53;101751.47;5068127;28;20048;-57
2021/07/10 06:20:15;;;;;;;33.05;20.00;;;;;;;18.95;78.40;101749.06;5068631;28;20052;-57
2021/07/10 06:22:43;;;;;;;29.52;19.48;;;;;;;19.08;78.31;101741.66;5071346;28;20070;-56
2021/07/10 06:25:10;;;;;;;32.08;21.50;;;;;;;19.18;77.09;101752.38;5068718;28;20048;-57
2021/07/10 06:27:37;;;;;;;32.33;22.02;;;;;;;19.32;75.82;101751.16;5069701;28;20044;-57
2021/07/10 06:30:08;;;;;;;33.70;21.27;;;;;;;19.42;75.79;101751.19;5067704;28;20059;-57
2021/07/10 06:32:35;;;;;;;32.53;21.48;;;;;;;19.55;75.85;101756.25;5069379;28;20143;-56
2021/07/10 06:35:02;;;;;;;37.58;24.50;;;;;;;19.67;75.13;101757.00;5072382;28;20045;-56
2021/07/10 06:37:29;;;;;;;32.22;23.90;;;;;;;19.80;73.46;101754.09;5072233;28;20098;-56
2021/07/10 06:39:56;;;;;;;32.88;24.02;;;;;;;19.96;73.46;101749.06;5069449;28;20052;-57
2021/07/10 06:42:22;;;;;;;36.17;23.88;;;;;;;20.01;73.33;101749.47;5069718;28;20455;-57
2021/07/10 06:44:49;;;;;;;31.92;23.13;;;;;;;20.13;71.64;101742.19;5069161;28;20094;-57
2021/07/10 06:47:18;;;;;;;35.83;24.02;;;;;;;20.18;71.27;101741.75;5070876;28;20056;-57
2021/07/10 06:49:45;;;;;;;33.42;24.27;;;;;;;20.20;70.74;101745.13;5069611;28;20051;-57
2021/07/10 06:52:13;;;;;;;36.58;24.45;;;;;;;20.21;69.94;101744.16;5069598;28;20120;-57
2021/07/10 06:54:39;;;;;;;34.85;23.75;;;;;;;20.09;69.75;101748.78;5069057;28;20119;-56
2021/07/10 06:57:06;;;;;;;36.85;23.58;;;;;;;20.01;69.60;101749.47;5068953;28;20425;-57
2021/07/10 06:59:33;;;;;;;35.50;24.10;;;;;;;20.14;69.21;101751.03;5067596;28;20614;-57
2021/07/10 07:02:00;;;;;;;39.47;25.88;;;;;;;20.18;69.41;101750.63;5068956;28;20143;-57
2021/07/10 07:04:27;;;;;;;31.17;22.08;;;;;;;20.37;69.43;101747.09;5069103;28;20501;-57
2021/07/10 07:06:53;;;;;;;29.25;21.08;;;;;;;20.59;68.93;101753.09;5069162;28;20057;-57
2021/07/10 07:09:20;;;;;;;30.55;21.20;;;;;;;20.69;67.60;101755.78;5068793;28;21153;-57
2021/07/10 07:11:50;;;;;;;31.90;21.65;;;;;;;20.79;66.90;101753.06;5068882;28;20040;-57
2021/07/10 07:14:18;;;;;;;31.35;22.35;;;;;;;20.83;68.01;101760.66;5067712;28;20493;-57
2021/07/10 07:16:45;;;;;;;29.98;21.08;;;;;;;20.97;66.20;101753.16;5068559;28;20505;-57
2021/07/10 07:19:12;;;;;;;31.48;20.83;;;;;;;21.01;66.35;101754.53;5069025;28;20087;-57
2021/07/10 07:21:39;;;;;;;30.05;21.38;;;;;;;21.03;65.70;101758.75;5069396;28;20433;-57
2021/07/10 07:24:06;;;;;;;30.00;20.23;;;;;;;21.14;66.09;101754.22;5068776;28;20106;-58
2021/07/10 07:26:34;;;;;;;28.42;19.98;;;;;;;21.19;64.34;101746.59;5072180;28;20056;-55
2021/07/10 07:29:02;;;;;;;30.33;20.70;;;;;;;21.32;64.37;101747.06;5072927;28;20509;-57
2021/07/10 07:31:29;;;;;;;30.70;21.02;;;;;;;21.31;64.94;101742.75;5075925;28;20102;-56
2021/07/10 07:33:56;;;;;;;26.42;18.90;;;;;;;21.34;64.12;101734.41;5073252;28;20044;-57
2021/07/10 07:36:24;;;;;;;29.50;21.08;;;;;;;21.47;63.64;101743.91;5072785;28;20067;-56
2021/07/10 07:38:51;;;;;;;26.23;18.65;;;;;;;21.60;63.54;101744.44;5072983;28;20048;-57
2021/07/10 07:41:18;;;;;;;26.83;19.58;;;;;;;21.73;62.83;101731.53;5071418;28;20048;-56
2021/07/10 07:43:46;;;;;;;25.15;18.20;;;;;;;21.68;62.98;101743.66;5072766;28;20056;-56
2021/07/10 07:46:14;;;;;;;28.23;19.05;;;;;;;21.54;62.90;101739.66;5070809;28;20083;-56
2021/07/10 07:48:43;;;;;;;28.77;20.10;;;;;;;21.50;63.41;101738.25;5071448;28;20048;-56
2021/07/10 07:51:15;;;;;;;27.30;19.45;;;;;;;21.71;63.73;101735.34;5071665;28;20041;-56
2021/07/10 07:53:43;;;;;;;31.23;20.77;;;;;;;21.89;62.69;101728.16;5072521;28;20036;-57
2021/07/10 07:56:10;;;;;;;28.73;20.77;;;;;;;21.85;62.66;101733.97;5070782;28;20106;-56
2021/07/10 07:58:39;;;;;;;27.60;20.02;;;;;;;21.73;62.41;101736.03;5071396;28;20130;-57
2021/07/10 08:01:07;;;;;;;25.70;18.58;;;;;;;22.05;62.90;101743.53;5070554;28;20052;-57
2021/07/10 08:03:34;;;;;;;26.88;19.33;;;;;;;22.25;61.57;101738.84;5074540;28;20048;-56
2021/07/10 08:06:02;;;;;;;28.17;19.30;;;;;;;22.31;61.60;101740.06;5072446;28;20533;-58
2021/07/10 08:08:29;;;;;;;26.25;19.08;;;;;;;22.32;60.76;101728.34;5072222;28;20102;-57
2021/07/10 08:10:56;;;;;;;24.38;18.33;;;;;;;22.45;59.90;101723.47;5055751;28;20447;-57
2021/07/10 08:13:23;;;;;;;22.52;15.98;;;;;;;22.70;58.96;101726.28;5075069;28;20053;-58
2021/07/10 08:15:50;;;;;;;21.25;15.10;;;;;;;22.91;58.04;101725.06;5069292;28;20512;-58
2021/07/10 08:18:17;;;;;;;22.63;15.93;;;;;;;22.72;58.44;101720.75;5071545;28;20056;-58
2021/07/10 08:20:44;;;;;;;22.65;16.50;;;;;;;22.53;59.60;101727.19;5072060;28;20110;-58
2021/07/10 08:23:11;;;;;;;20.27;14.32;;;;;;;22.45;58.37;101726.13;5072527;28;20143;-58
2021/07/10 08:25:37;;;;;;;23.17;15.27;;;;;;;22.57;58.50;101721.34;5069851;28;20056;-57
2021/07/10 08:28:04;;;;;;;22.05;15.68;;;;;;;22.66;59.18;101716.88;5071212;28;20044;-58
2021/07/10 08:30:31;;;;;;;20.65;14.57;;;;;;;22.79;57.75;101714.59;5069935;28;20459;-57
2021/07/10 08:32:58;;;;;;;18.95;13.73;;;;;;;22.66;58.23;101716.88;5071118;28;20048;-58
2021/07/10 08:35:25;;;;;;;20.75;14.40;;;;;;;22.80;57.04;101720.81;5072159;28;20099;-57
2021/07/10 08:37:52;;;;;;;19.90;14.52;;;;;;;22.94;56.99;101722.88;5070758;28;20531;-57
2021/07/10 08:40:20;;;;;;;20.63;14.45;;;;;;;23.02;57.13;101710.53;5071882;28;20390;-56
2021/07/10 08:42:47;;;;;;;22.63;15.00;;;;;;;23.02;57.92;101711.34;5072614;28;20094;-57
2021/07/10 08:45:15;;;;;;;22.77;14.90;;;;;;;23.07;57.13;101711.72;5074370;28;20082;-56
2021/07/10 08:47:43;;;;;;;20.33;14.60;;;;;;;23.38;55.93;101708.50;5073238;28;20044;-54
2021/07/10 08:50:13;;;;;;;20.65;13.55;;;;;;;23.46;55.29;101695.09;5074281;28;20459;-55
2021/07/10 08:52:40;;;;;;;17.92;11.75;;;;;;;23.89;54.53;101699.56;5074048;28;20044;-54
2021/07/10 08:55:09;;;;;;;20.15;13.73;;;;;;;23.87;54.16;101699.66;5074066;28;20101;-55
2021/07/10 08:57:36;;;;;;;16.73;11.40;;;;;;;23.81;54.21;101703.03;5071302;28;20052;-55
2021/07/10 09:00:10;;;;;;;15.45;8.52;;;;;;;23.75;50.49;101701.84;5068641;28;20063;-56
2021/07/10 09:02:41;;;;;;;11.27;7.13;;;;;;;23.51;49.26;101691.09;5074031;28;20091;-55
2021/07/10 09:05:08;;;;;;;10.40;6.18;;;;;;;23.86;48.96;101691.78;5073658;28;20061;-55
2021/07/10 09:08:09;;;;;;;15.88;7.93;;;;;;;23.84;49.52;101694.63;5071413;28;20486;-55
2021/07/10 09:10:36;;;;;;;11.35;6.55;;;;;;;24.15;47.98;101688.63;5069882;28;20045;-54
2021/07/10 09:13:04;;;;;;;10.05;4.82;;;;;;;24.10;46.63;101685.59;5072719;28;20500;-54
2021/07/10 09:15:32;;;;;;;11.23;5.72;;;;;;;24.13;47.41;101686.09;5067819;28;20057;-55
2021/07/10 09:17:59;;;;;;;11.32;6.55;;;;;;;24.32;47.98;101688.59;5069324;28;20047;-54
2021/07/10 09:20:28;;;;;;;10.05;6.10;;;;;;;24.50;48.15;101696.44;5070845;28;20374;-55
2021/07/10 09:22:56;;;;;;;12.23;7.07;;;;;;;24.18;48.55;101688.28;5074067;28;20381;-55
2021/07/10 09:25:24;;;;;;;11.52;6.70;;;;;;;24.30;48.02;101692.28;5088996;28;20063;-55
2021/07/10 09:27:52;;;;;;;11.82;6.57;;;;;;;24.56;48.32;101688.53;5073451;28;20048;-57
2021/07/10 09:30:39;;;;;;;11.75;6.07;;;;;;;24.84;47.26;101681.94;5073526;28;20059;-57
2021/07/10 09:33:13;;;;;;;11.20;5.80;;;;;;;24.68;46.56;101680.97;5086546;28;20048;-57
2021/07/10 09:35:54;;;;;;;10.57;6.45;;;;;;;24.85;47.20;101680.94;5071307;28;20599;-56
2021/07/10 09:38:26;;;;;;;10.63;6.28;;;;;;;24.82;45.98;101689.34;5072041;28;20052;-57
2021/07/10 09:40:57;;;;;;;11.45;6.50;;;;;;;24.82;45.57;101690.19;5085620;28;20064;-57
2021/07/10 09:43:29;;;;;;;13.60;6.75;;;;;;;24.97;44.52;101676.84;5072563;28;20040;-57
2021/07/10 09:45:58;;;;;;;10.57;5.63;;;;;;;25.05;46.17;101676.78;5068318;28;20044;-57
2021/07/10 09:48:30;;;;;;;8.98;4.30;;;;;;;25.19;45.15;101674.38;5086052;28;20424;-57
2021/07/10 09:51:19;;;;;;;7.50;4.38;;;;;;;25.31;44.15;101675.66;5073151;28;20420;-57
2021/07/10 09:54:03;;;;;;;9.27;4.20;;;;;;;25.54;43.99;101677.56;5073225;28;20084;-58
2021/07/10 09:56:31;;;;;;;7.72;4.60;;;;;;;25.81;41.89;101668.91;5072708;28;20497;-57
2021/07/10 09:58:58;;;;;;;7.25;3.88;;;;;;;25.54;41.95;101669.47;5088586;28;20041;-58
2021/07/10 10:01:28;;;;;;;7.50;4.07;;;;;;;25.31;43.45;101672.94;5072883;28;20037;-58
2021/07/10 10:03:55;;;;;;;7.75;4.57;;;;;;;25.37;42.10;101669.56;5072490;28;20127;-57
2021/07/10 10:06:32;;;;;;;7.95;4.03;;;;;;;25.61;41.74;101667.75;5070052;28;20056;-57
2021/07/10 10:09:02;;;;;;;8.60;5.00;;;;;;;25.56;41.71;101659.34;5069776;28;20055;-57
2021/07/10 10:12:01;;;;;;;9.77;5.55;;;;;;;25.63;42.26;101663.00;5069828;28;20048;-57
2021/07/10 10:14:31;;;;;;;9.32;5.22;;;;;;;25.63;42.05;101650.38;5034961;28;20068;-57
2021/07/10 10:16:59;;;;;;;10.32;5.53;;;;;;;25.78;44.30;101658.50;5069555;28;20158;-58
2021/07/10 10:19:31;;;;;;;8.90;5.97;;;;;;;25.88;43.22;101657.41;5068651;28;20056;-58
2021/07/10 10:22:00;;;;;;;9.98;6.22;;;;;;;25.77;44.09;101661.41;5071206;28;20540;-58
2021/07/10 10:24:28;;;;;;;9.55;5.93;;;;;;;25.81;43.26;101657.31;5069071;28;20095;-58
2021/07/10 10:26:57;;;;;;;9.30;5.57;;;;;;;25.88;42.28;101652.00;5085277;28;20056;-58
2021/07/10 10:29:26;;;;;;;8.85;5.07;;;;;;;26.07;41.96;101656.09;5068248;28;20448;-58
2021/07/10 10:31:54;;;;;;;9.15;6.07;;;;;;;26.06;41.88;101657.13;5070022;28;20721;-57
2021/07/10 10:34:21;;;;;;;8.98;5.60;;;;;;;26.11;42.24;101658.25;5072477;28;20060;-58
2021/07/10 10:36:50;;;;;;;9.30;5.65;;;;;;;26.11;41.29;101652.00;5072398;28;20492;-57
2021/07/10 10:39:19;;;;;;;10.88;6.78;;;;;;;26.20;41.63;101650.06;5071092;28;20055;-58
2021/07/10 10:41:49;;;;;;;9.48;6.25;;;;;;;26.34;41.84;101657.31;5072535;28;20124;-57
2021/07/10 10:44:20;;;;;;;10.48;6.72;;;;;;;26.61;41.75;101652.31;5067948;28;20135;-58
2021/07/10 10:46:52;;;;;;;11.18;7.32;;;;;;;26.06;41.96;101649.88;5067953;28;20044;-58
2021/07/10 10:49:34;;;;;;;12.27;7.57;;;;;;;26.52;42.52;101646.19;5069874;28;20051;-58
2021/07/10 10:52:34;;;;;;;10.35;7.03;;;;;;;27.14;41.00;101642.19;5071527;28;20052;-57
2021/07/10 10:55:21;;;;;;;10.75;6.22;;;;;;;27.51;40.04;101636.78;5072137;28;20040;-55
2021/07/10 10:57:49;;;;;;;11.48;6.38;;;;;;;27.65;38.96;101635.03;5072045;28;20049;-56
2021/07/10 11:00:37;;;;;;;9.63;6.32;;;;;;;28.13;38.77;101627.13;5071204;28;20048;-53
2021/07/10 11:03:19;;;;;;;10.27;5.82;;;;;;;27.99;39.15;101617.22;5053489;28;20052;-55
2021/07/10 11:05:56;;;;;;;9.05;6.35;;;;;;;28.32;38.20;101616.66;5071177;28;20509;-55
2021/07/10 11:08:31;;;;;;;10.25;6.50;;;;;;;28.00;38.35;101613.50;5071372;28;20196;-55
2021/07/10 11:10:58;;;;;;;11.45;6.72;;;;;;;27.85;38.90;101618.16;5087261;28;20045;-55
2021/07/10 11:13:36;;;;;;;11.32;7.53;;;;;;;28.13;38.88;101623.59;5071863;28;20041;-55
2021/07/10 11:16:05;;;;;;;11.60;8.15;;;;;;;27.78;38.81;101618.13;5070734;28;20055;-56
2021/07/10 11:18:54;;;;;;;9.88;5.70;;;;;;;27.91;39.37;101607.41;5069163;28;20049;-56